sensor_id;sensor_type;location;lat;lon;timestamp;P1;durP1;ratioP1;P2;durP2;ratioP2
19907;SDS011;10116;53.112;7.356;2022-07-21T00:01:29;5.17;;;4.87;;
19907;SDS011;10116;53.112;7.356;2022-07-21T00:03:55;10.00;;;4.80;;
19907;SDS011;10116;53.112;7.356;2022-07-21T00:06:21;4.80;;;4.43;;
19907;SDS011;10116;53.112;7.356;2022-07-21T00:08:46;4.80;;;4.47;;
19907;SDS011;10116;53.112;7.356;2022-07-21T00:11:12;5.33;;;4.87;;
19907;SDS011;10116;53.112;7.356;2022-07-21T00:13:38;5.17;;;4.77;;
19907;SDS011;10116;53.112;7.356;2022-07-21T00:16:03;4.53;;;4.27;;
19907;SDS011;10116;53.112;7.356;2022-07-21T00:18:29;5.10;;;4.70;;
19907;SDS011;10116;53.112;7.356;2022-07-21T00:20:55;4.17;;;3.97;;
19907;SDS011;10116;53.112;7.356;2022-07-21T00:23:22;4.53;;;4.23;;
19907;SDS011;10116;53.112;7.356;2022-07-21T00:25:48;4.50;;;4.10;;
19907;SDS011;10116;53.112;7.356;2022-07-21T00:28:14;5.15;;;4.65;;
19907;SDS011;10116;53.112;7.356;2022-07-21T00:30:40;5.03;;;4.63;;
19907;SDS011;10116;53.112;7.356;2022-07-21T00:33:06;4.70;;;4.40;;
19907;SDS011;10116;53.112;7.356;2022-07-21T00:35:31;4.80;;;4.50;;
19907;SDS011;10116;53.112;7.356;2022-07-21T00:37:57;4.47;;;4.17;;
19907;SDS011;10116;53.112;7.356;2022-07-21T00:40:23;5.15;;;4.05;;
19907;SDS011;10116;53.112;7.356;2022-07-21T00:42:48;4.70;;;4.40;;
19907;SDS011;10116;53.112;7.356;2022-07-21T00:45:14;5.13;;;4.35;;
19907;SDS011;10116;53.112;7.356;2022-07-21T00:47:40;5.10;;;4.70;;
19907;SDS011;10116;53.112;7.356;2022-07-21T00:50:07;4.63;;;4.32;;
19907;SDS011;10116;53.112;7.356;2022-07-21T00:52:36;4.70;;;4.10;;
19907;SDS011;10116;53.112;7.356;2022-07-21T00:55:02;4.45;;;4.13;;
19907;SDS011;10116;53.112;7.356;2022-07-21T00:57:30;5.40;;;4.90;;
19907;SDS011;10116;53.112;7.356;2022-07-21T00:59:55;4.50;;;3.90;;
19907;SDS011;10116;53.112;7.356;2022-07-21T01:02:21;4.37;;;4.07;;
19907;SDS011;10116;53.112;7.356;2022-07-21T01:04:47;4.50;;;4.20;;
19907;SDS011;10116;53.112;7.356;2022-07-21T01:07:14;4.10;;;3.80;;
19907;SDS011;10116;53.112;7.356;2022-07-21T01:09:41;4.13;;;3.83;;
19907;SDS011;10116;53.112;7.356;2022-07-21T01:12:07;6.47;;;3.78;;
19907;SDS011;10116;53.112;7.356;2022-07-21T01:14:33;4.40;;;4.10;;
19907;SDS011;10116;53.112;7.356;2022-07-21T01:17:00;4.30;;;4.00;;
19907;SDS011;10116;53.112;7.356;2022-07-21T01:19:27;4.37;;;4.07;;
19907;SDS011;10116;53.112;7.356;2022-07-21T01:21:53;4.27;;;3.97;;
19907;SDS011;10116;53.112;7.356;2022-07-21T01:24:19;5.68;;;4.53;;
19907;SDS011;10116;53.112;7.356;2022-07-21T01:26:46;4.53;;;4.20;;
19907;SDS011;10116;53.112;7.356;2022-07-21T01:29:14;4.15;;;3.50;;
19907;SDS011;10116;53.112;7.356;2022-07-21T01:31:41;4.90;;;4.50;;
19907;SDS011;10116;53.112;7.356;2022-07-21T01:34:08;5.20;;;4.70;;
19907;SDS011;10116;53.112;7.356;2022-07-21T01:36:34;4.10;;;3.70;;
19907;SDS011;10116;53.112;7.356;2022-07-21T01:39:00;4.33;;;3.97;;
19907;SDS011;10116;53.112;7.356;2022-07-21T01:41:45;4.73;;;4.00;;
19907;SDS011;10116;53.112;7.356;2022-07-21T01:44:12;4.70;;;4.30;;
19907;SDS011;10116;53.112;7.356;2022-07-21T01:46:40;4.63;;;4.27;;
19907;SDS011;10116;53.112;7.356;2022-07-21T01:49:11;4.32;;;3.92;;
19907;SDS011;10116;53.112;7.356;2022-07-21T01:51:37;4.27;;;3.97;;
19907;SDS011;10116;53.112;7.356;2022-07-21T01:54:04;4.30;;;3.80;;
19907;SDS011;10116;53.112;7.356;2022-07-21T01:56:31;4.30;;;4.00;;
19907;SDS011;10116;53.112;7.356;2022-07-21T01:58:58;4.80;;;4.40;;
19907;SDS011;10116;53.112;7.356;2022-07-21T02:01:25;4.67;;;4.27;;
19907;SDS011;10116;53.112;7.356;2022-07-21T02:03:52;3.97;;;3.67;;
19907;SDS011;10116;53.112;7.356;2022-07-21T02:06:19;4.40;;;4.00;;
19907;SDS011;10116;53.112;7.356;2022-07-21T02:08:45;3.90;;;3.60;;
19907;SDS011;10116;53.112;7.356;2022-07-21T02:11:11;4.53;;;4.13;;
19907;SDS011;10116;53.112;7.356;2022-07-21T02:13:38;4.25;;;3.95;;
19907;SDS011;10116;53.112;7.356;2022-07-21T02:16:04;4.23;;;3.83;;
19907;SDS011;10116;53.112;7.356;2022-07-21T02:18:30;4.50;;;3.90;;
19907;SDS011;10116;53.112;7.356;2022-07-21T02:20:56;3.80;;;3.50;;
19907;SDS011;10116;53.112;7.356;2022-07-21T02:23:22;3.83;;;3.60;;
19907;SDS011;10116;53.112;7.356;2022-07-21T02:25:49;4.60;;;3.80;;
19907;SDS011;10116;53.112;7.356;2022-07-21T02:28:15;3.90;;;3.60;;
19907;SDS011;10116;53.112;7.356;2022-07-21T02:30:41;4.33;;;4.03;;
19907;SDS011;10116;53.112;7.356;2022-07-21T02:33:07;4.00;;;3.63;;
19907;SDS011;10116;53.112;7.356;2022-07-21T02:35:33;4.17;;;3.73;;
19907;SDS011;10116;53.112;7.356;2022-07-21T02:37:59;4.03;;;3.63;;
19907;SDS011;10116;53.112;7.356;2022-07-21T02:40:25;3.75;;;3.40;;
19907;SDS011;10116;53.112;7.356;2022-07-21T02:42:50;3.97;;;3.63;;
19907;SDS011;10116;53.112;7.356;2022-07-21T02:45:16;4.60;;;3.80;;
19907;SDS011;10116;53.112;7.356;2022-07-21T02:47:49;4.13;;;3.83;;
19907;SDS011;10116;53.112;7.356;2022-07-21T02:50:16;4.13;;;3.80;;
19907;SDS011;10116;53.112;7.356;2022-07-21T02:52:42;3.60;;;3.30;;
19907;SDS011;10116;53.112;7.356;2022-07-21T02:55:08;3.83;;;3.53;;
19907;SDS011;10116;53.112;7.356;2022-07-21T02:57:34;4.43;;;4.13;;
19907;SDS011;10116;53.112;7.356;2022-07-21T03:00:00;4.40;;;3.60;;
19907;SDS011;10116;53.112;7.356;2022-07-21T03:02:26;3.40;;;3.10;;
19907;SDS011;10116;53.112;7.356;2022-07-21T03:04:51;3.80;;;3.50;;
19907;SDS011;10116;53.112;7.356;2022-07-21T03:07:17;4.00;;;3.70;;
19907;SDS011;10116;53.112;7.356;2022-07-21T03:09:43;3.53;;;3.33;;
19907;SDS011;10116;53.112;7.356;2022-07-21T03:12:08;5.53;;;3.70;;
19907;SDS011;10116;53.112;7.356;2022-07-21T03:14:34;3.83;;;3.53;;
19907;SDS011;10116;53.112;7.356;2022-07-21T03:16:59;3.50;;;3.30;;
19907;SDS011;10116;53.112;7.356;2022-07-21T03:19:27;4.00;;;3.70;;
19907;SDS011;10116;53.112;7.356;2022-07-21T03:21:53;5.05;;;3.90;;
19907;SDS011;10116;53.112;7.356;2022-07-21T03:24:18;3.80;;;3.50;;
19907;SDS011;10116;53.112;7.356;2022-07-21T03:26:44;4.37;;;3.97;;
19907;SDS011;10116;53.112;7.356;2022-07-21T03:29:10;4.00;;;3.70;;
19907;SDS011;10116;53.112;7.356;2022-07-21T03:31:35;3.73;;;3.37;;
19907;SDS011;10116;53.112;7.356;2022-07-21T03:34:01;3.63;;;3.43;;
19907;SDS011;10116;53.112;7.356;2022-07-21T03:36:28;5.33;;;3.73;;
19907;SDS011;10116;53.112;7.356;2022-07-21T03:38:54;3.10;;;2.83;;
19907;SDS011;10116;53.112;7.356;2022-07-21T03:41:19;4.03;;;3.70;;
19907;SDS011;10116;53.112;7.356;2022-07-21T03:43:45;3.73;;;3.43;;
19907;SDS011;10116;53.112;7.356;2022-07-21T03:46:10;4.23;;;3.40;;
19907;SDS011;10116;53.112;7.356;2022-07-21T03:48:36;3.53;;;3.23;;
19907;SDS011;10116;53.112;7.356;2022-07-21T03:51:02;3.90;;;3.45;;
19907;SDS011;10116;53.112;7.356;2022-07-21T03:53:27;4.05;;;3.75;;
19907;SDS011;10116;53.112;7.356;2022-07-21T03:55:53;3.70;;;3.40;;
19907;SDS011;10116;53.112;7.356;2022-07-21T03:58:19;3.60;;;3.30;;
19907;SDS011;10116;53.112;7.356;2022-07-21T04:00:44;3.42;;;3.15;;
19907;SDS011;10116;53.112;7.356;2022-07-21T04:03:10;4.05;;;3.75;;
19907;SDS011;10116;53.112;7.356;2022-07-21T04:05:37;3.95;;;3.60;;
19907;SDS011;10116;53.112;7.356;2022-07-21T04:08:04;3.58;;;3.38;;
19907;SDS011;10116;53.112;7.356;2022-07-21T04:10:31;3.92;;;3.63;;
19907;SDS011;10116;53.112;7.356;2022-07-21T04:13:00;3.72;;;3.42;;
19907;SDS011;10116;53.112;7.356;2022-07-21T04:15:27;4.00;;;3.70;;
19907;SDS011;10116;53.112;7.356;2022-07-21T04:17:53;4.50;;;3.33;;
19907;SDS011;10116;53.112;7.356;2022-07-21T04:20:19;4.05;;;3.75;;
19907;SDS011;10116;53.112;7.356;2022-07-21T04:22:46;3.60;;;3.30;;
19907;SDS011;10116;53.112;7.356;2022-07-21T04:25:12;3.70;;;3.40;;
19907;SDS011;10116;53.112;7.356;2022-07-21T04:27:39;4.03;;;3.72;;
19907;SDS011;10116;53.112;7.356;2022-07-21T04:30:05;3.97;;;3.67;;
19907;SDS011;10116;53.112;7.356;2022-07-21T04:32:33;3.83;;;3.53;;
19907;SDS011;10116;53.112;7.356;2022-07-21T04:34:58;3.85;;;3.63;;
19907;SDS011;10116;53.112;7.356;2022-07-21T04:37:24;3.85;;;3.60;;
19907;SDS011;10116;53.112;7.356;2022-07-21T04:39:50;3.92;;;3.63;;
19907;SDS011;10116;53.112;7.356;2022-07-21T04:42:15;3.75;;;3.50;;
19907;SDS011;10116;53.112;7.356;2022-07-21T04:44:41;3.10;;;2.90;;
19907;SDS011;10116;53.112;7.356;2022-07-21T04:47:06;3.72;;;3.47;;
19907;SDS011;10116;53.112;7.356;2022-07-21T04:49:32;3.60;;;3.30;;
19907;SDS011;10116;53.112;7.356;2022-07-21T04:51:58;3.42;;;3.22;;
19907;SDS011;10116;53.112;7.356;2022-07-21T04:54:23;3.90;;;3.60;;
19907;SDS011;10116;53.112;7.356;2022-07-21T04:56:49;4.30;;;3.92;;
19907;SDS011;10116;53.112;7.356;2022-07-21T04:59:15;3.67;;;3.47;;
19907;SDS011;10116;53.112;7.356;2022-07-21T05:01:40;4.10;;;3.65;;
19907;SDS011;10116;53.112;7.356;2022-07-21T05:04:06;4.65;;;4.22;;
19907;SDS011;10116;53.112;7.356;2022-07-21T05:06:32;3.90;;;3.60;;
19907;SDS011;10116;53.112;7.356;2022-07-21T05:08:58;4.03;;;3.70;;
19907;SDS011;10116;53.112;7.356;2022-07-21T05:11:24;3.25;;;3.05;;
19907;SDS011;10116;53.112;7.356;2022-07-21T05:13:50;4.70;;;3.65;;
19907;SDS011;10116;53.112;7.356;2022-07-21T05:16:15;4.10;;;3.70;;
19907;SDS011;10116;53.112;7.356;2022-07-21T05:18:41;3.63;;;3.43;;
19907;SDS011;10116;53.112;7.356;2022-07-21T05:21:07;3.47;;;3.28;;
19907;SDS011;10116;53.112;7.356;2022-07-21T05:23:33;3.83;;;3.58;;
19907;SDS011;10116;53.112;7.356;2022-07-21T05:25:58;3.37;;;3.17;;
19907;SDS011;10116;53.112;7.356;2022-07-21T05:28:24;5.20;;;3.80;;
19907;SDS011;10116;53.112;7.356;2022-07-21T05:30:52;4.20;;;3.80;;
19907;SDS011;10116;53.112;7.356;2022-07-21T05:33:18;3.90;;;3.55;;
19907;SDS011;10116;53.112;7.356;2022-07-21T05:35:44;4.15;;;3.78;;
19907;SDS011;10116;53.112;7.356;2022-07-21T05:38:09;3.80;;;3.50;;
19907;SDS011;10116;53.112;7.356;2022-07-21T05:40:35;4.55;;;4.07;;
19907;SDS011;10116;53.112;7.356;2022-07-21T05:43:01;4.38;;;4.03;;
19907;SDS011;10116;53.112;7.356;2022-07-21T05:45:26;4.60;;;4.20;;
19907;SDS011;10116;53.112;7.356;2022-07-21T05:47:52;4.43;;;4.00;;
19907;SDS011;10116;53.112;7.356;2022-07-21T05:50:17;3.70;;;3.50;;
19907;SDS011;10116;53.112;7.356;2022-07-21T05:52:43;4.18;;;3.78;;
19907;SDS011;10116;53.112;7.356;2022-07-21T05:55:09;4.40;;;4.00;;
19907;SDS011;10116;53.112;7.356;2022-07-21T05:57:35;3.70;;;3.50;;
19907;SDS011;10116;53.112;7.356;2022-07-21T06:00:01;4.22;;;3.83;;
19907;SDS011;10116;53.112;7.356;2022-07-21T06:02:27;3.97;;;3.67;;
19907;SDS011;10116;53.112;7.356;2022-07-21T06:04:56;4.03;;;3.67;;
19907;SDS011;10116;53.112;7.356;2022-07-21T06:07:22;3.78;;;3.47;;
19907;SDS011;10116;53.112;7.356;2022-07-21T06:09:48;3.80;;;3.50;;
19907;SDS011;10116;53.112;7.356;2022-07-21T06:12:14;4.10;;;3.70;;
19907;SDS011;10116;53.112;7.356;2022-07-21T06:14:40;4.15;;;3.85;;
19907;SDS011;10116;53.112;7.356;2022-07-21T06:17:06;4.17;;;3.87;;
19907;SDS011;10116;53.112;7.356;2022-07-21T06:19:31;4.22;;;3.90;;
19907;SDS011;10116;53.112;7.356;2022-07-21T06:21:57;4.38;;;4.07;;
19907;SDS011;10116;53.112;7.356;2022-07-21T06:24:24;3.30;;;3.10;;
19907;SDS011;10116;53.112;7.356;2022-07-21T06:26:51;3.80;;;3.50;;
19907;SDS011;10116;53.112;7.356;2022-07-21T06:29:17;4.88;;;4.47;;
19907;SDS011;10116;53.112;7.356;2022-07-21T06:31:43;4.07;;;3.78;;
19907;SDS011;10116;53.112;7.356;2022-07-21T06:34:08;4.18;;;3.78;;
19907;SDS011;10116;53.112;7.356;2022-07-21T06:36:34;4.32;;;4.00;;
19907;SDS011;10116;53.112;7.356;2022-07-21T06:38:59;4.65;;;4.30;;
19907;SDS011;10116;53.112;7.356;2022-07-21T06:41:25;4.13;;;3.73;;
19907;SDS011;10116;53.112;7.356;2022-07-21T06:43:51;3.67;;;3.42;;
19907;SDS011;10116;53.112;7.356;2022-07-21T06:46:17;3.43;;;3.23;;
19907;SDS011;10116;53.112;7.356;2022-07-21T06:48:42;3.85;;;3.65;;
19907;SDS011;10116;53.112;7.356;2022-07-21T06:51:08;4.63;;;4.30;;
19907;SDS011;10116;53.112;7.356;2022-07-21T06:53:33;4.28;;;3.97;;
19907;SDS011;10116;53.112;7.356;2022-07-21T06:55:59;5.03;;;4.57;;
19907;SDS011;10116;53.112;7.356;2022-07-21T06:58:25;4.07;;;3.78;;
19907;SDS011;10116;53.112;7.356;2022-07-21T07:00:52;5.57;;;4.00;;
19907;SDS011;10116;53.112;7.356;2022-07-21T07:03:18;4.03;;;3.83;;
19907;SDS011;10116;53.112;7.356;2022-07-21T07:05:45;4.80;;;4.40;;
19907;SDS011;10116;53.112;7.356;2022-07-21T07:08:12;4.72;;;4.03;;
19907;SDS011;10116;53.112;7.356;2022-07-21T07:10:38;4.95;;;4.50;;
19907;SDS011;10116;53.112;7.356;2022-07-21T07:13:05;4.55;;;4.15;;
19907;SDS011;10116;53.112;7.356;2022-07-21T07:15:31;3.90;;;3.70;;
19907;SDS011;10116;53.112;7.356;2022-07-21T07:17:57;4.40;;;4.10;;
19907;SDS011;10116;53.112;7.356;2022-07-21T07:20:23;5.25;;;4.75;;
19907;SDS011;10116;53.112;7.356;2022-07-21T07:22:48;4.38;;;4.18;;
19907;SDS011;10116;53.112;7.356;2022-07-21T07:25:14;4.85;;;4.45;;
19907;SDS011;10116;53.112;7.356;2022-07-21T07:27:46;5.03;;;4.63;;
19907;SDS011;10116;53.112;7.356;2022-07-21T07:30:14;4.40;;;4.10;;
19907;SDS011;10116;53.112;7.356;2022-07-21T07:32:40;4.15;;;3.80;;
19907;SDS011;10116;53.112;7.356;2022-07-21T07:35:07;4.22;;;4.03;;
19907;SDS011;10116;53.112;7.356;2022-07-21T07:37:38;4.75;;;4.35;;
19907;SDS011;10116;53.112;7.356;2022-07-21T07:40:05;4.40;;;4.10;;
19907;SDS011;10116;53.112;7.356;2022-07-21T07:42:34;4.07;;;3.85;;
19907;SDS011;10116;53.112;7.356;2022-07-21T07:45:00;5.07;;;4.78;;
19907;SDS011;10116;53.112;7.356;2022-07-21T07:47:25;4.13;;;3.92;;
19907;SDS011;10116;53.112;7.356;2022-07-21T07:49:52;3.92;;;3.63;;
19907;SDS011;10116;53.112;7.356;2022-07-21T07:52:18;4.90;;;4.40;;
19907;SDS011;10116;53.112;7.356;2022-07-21T07:54:44;4.30;;;4.00;;
19907;SDS011;10116;53.112;7.356;2022-07-21T07:57:10;4.85;;;4.40;;
19907;SDS011;10116;53.112;7.356;2022-07-21T07:59:36;5.22;;;4.72;;
19907;SDS011;10116;53.112;7.356;2022-07-21T08:02:01;4.38;;;4.07;;
19907;SDS011;10116;53.112;7.356;2022-07-21T08:04:27;4.80;;;4.50;;
19907;SDS011;10116;53.112;7.356;2022-07-21T08:06:52;4.65;;;4.35;;
19907;SDS011;10116;53.112;7.356;2022-07-21T08:09:18;4.67;;;4.27;;
19907;SDS011;10116;53.112;7.356;2022-07-21T08:11:44;4.60;;;4.20;;
19907;SDS011;10116;53.112;7.356;2022-07-21T08:14:12;4.23;;;3.93;;
19907;SDS011;10116;53.112;7.356;2022-07-21T08:16:38;4.40;;;4.10;;
19907;SDS011;10116;53.112;7.356;2022-07-21T08:19:04;4.70;;;4.40;;
19907;SDS011;10116;53.112;7.356;2022-07-21T08:21:30;4.78;;;4.38;;
19907;SDS011;10116;53.112;7.356;2022-07-21T08:23:57;5.38;;;4.97;;
19907;SDS011;10116;53.112;7.356;2022-07-21T08:26:23;5.13;;;4.70;;
19907;SDS011;10116;53.112;7.356;2022-07-21T08:28:49;4.18;;;3.97;;
19907;SDS011;10116;53.112;7.356;2022-07-21T08:31:16;4.70;;;4.40;;
19907;SDS011;10116;53.112;7.356;2022-07-21T08:33:41;4.57;;;4.28;;
19907;SDS011;10116;53.112;7.356;2022-07-21T08:36:07;4.80;;;4.50;;
19907;SDS011;10116;53.112;7.356;2022-07-21T08:38:32;4.72;;;4.30;;
19907;SDS011;10116;53.112;7.356;2022-07-21T08:40:58;4.45;;;4.20;;
19907;SDS011;10116;53.112;7.356;2022-07-21T08:43:24;4.90;;;4.50;;
19907;SDS011;10116;53.112;7.356;2022-07-21T08:45:49;4.85;;;4.55;;
19907;SDS011;10116;53.112;7.356;2022-07-21T08:48:15;4.20;;;3.90;;
19907;SDS011;10116;53.112;7.356;2022-07-21T08:50:45;4.60;;;4.27;;
19907;SDS011;10116;53.112;7.356;2022-07-21T08:53:11;4.30;;;4.00;;
19907;SDS011;10116;53.112;7.356;2022-07-21T08:55:37;5.57;;;5.10;;
19907;SDS011;10116;53.112;7.356;2022-07-21T08:58:06;4.87;;;4.47;;
19907;SDS011;10116;53.112;7.356;2022-07-21T09:00:37;4.93;;;4.60;;
19907;SDS011;10116;53.112;7.356;2022-07-21T09:03:09;4.87;;;4.33;;
19907;SDS011;10116;53.112;7.356;2022-07-21T09:08:35;4.70;;;4.30;;
19907;SDS011;10116;53.112;7.356;2022-07-21T09:11:08;4.13;;;3.90;;
19907;SDS011;10116;53.112;7.356;2022-07-21T09:13:34;4.22;;;4.03;;
19907;SDS011;10116;53.112;7.356;2022-07-21T09:15:59;4.60;;;4.30;;
19907;SDS011;10116;53.112;7.356;2022-07-21T09:18:25;5.20;;;4.63;;
19907;SDS011;10116;53.112;7.356;2022-07-21T09:20:51;4.83;;;4.53;;
19907;SDS011;10116;53.112;7.356;2022-07-21T09:23:19;4.93;;;4.53;;
19907;SDS011;10116;53.112;7.356;2022-07-21T09:25:47;4.65;;;4.35;;
19907;SDS011;10116;53.112;7.356;2022-07-21T09:30:59;5.22;;;4.82;;
19907;SDS011;10116;53.112;7.356;2022-07-21T09:33:34;4.67;;;4.37;;
19907;SDS011;10116;53.112;7.356;2022-07-21T09:36:02;4.53;;;4.23;;
19907;SDS011;10116;53.112;7.356;2022-07-21T09:38:42;5.43;;;5.03;;
19907;SDS011;10116;53.112;7.356;2022-07-21T09:41:16;4.55;;;4.25;;
19907;SDS011;10116;53.112;7.356;2022-07-21T09:43:49;4.35;;;4.10;;
19907;SDS011;10116;53.112;7.356;2022-07-21T09:46:19;4.50;;;4.22;;
19907;SDS011;10116;53.112;7.356;2022-07-21T09:48:48;5.05;;;4.55;;
19907;SDS011;10116;53.112;7.356;2022-07-21T09:56:29;4.72;;;4.43;;
19907;SDS011;10116;53.112;7.356;2022-07-21T09:58:57;5.32;;;4.60;;
19907;SDS011;10116;53.112;7.356;2022-07-21T10:01:24;5.03;;;3.90;;
19907;SDS011;10116;53.112;7.356;2022-07-21T10:03:50;5.05;;;4.65;;
19907;SDS011;10116;53.112;7.356;2022-07-21T10:06:17;4.85;;;4.55;;
19907;SDS011;10116;53.112;7.356;2022-07-21T10:08:45;5.07;;;4.68;;
19907;SDS011;10116;53.112;7.356;2022-07-21T10:11:11;4.78;;;4.47;;
19907;SDS011;10116;53.112;7.356;2022-07-21T10:13:37;5.10;;;4.80;;
19907;SDS011;10116;53.112;7.356;2022-07-21T10:16:04;5.15;;;4.75;;
19907;SDS011;10116;53.112;7.356;2022-07-21T10:18:35;4.90;;;4.60;;
19907;SDS011;10116;53.112;7.356;2022-07-21T10:21:23;5.05;;;4.72;;
19907;SDS011;10116;53.112;7.356;2022-07-21T10:23:55;4.43;;;4.20;;
19907;SDS011;10116;53.112;7.356;2022-07-21T10:26:21;4.97;;;4.67;;
19907;SDS011;10116;53.112;7.356;2022-07-21T10:28:48;4.35;;;4.15;;
19907;SDS011;10116;53.112;7.356;2022-07-21T10:31:21;4.88;;;4.43;;
19907;SDS011;10116;53.112;7.356;2022-07-21T10:41:37;4.97;;;4.68;;
19907;SDS011;10116;53.112;7.356;2022-07-21T10:44:37;5.32;;;5.03;;
19907;SDS011;10116;53.112;7.356;2022-07-21T10:57:45;5.05;;;4.75;;
19907;SDS011;10116;53.112;7.356;2022-07-21T11:02:59;4.22;;;4.03;;
19907;SDS011;10116;53.112;7.356;2022-07-21T11:05:27;4.40;;;4.10;;
19907;SDS011;10116;53.112;7.356;2022-07-21T11:10:42;5.40;;;4.60;;
19907;SDS011;10116;53.112;7.356;2022-07-21T11:13:15;5.25;;;4.85;;
19907;SDS011;10116;53.112;7.356;2022-07-21T11:18:20;4.70;;;4.40;;
19907;SDS011;10116;53.112;7.356;2022-07-21T11:23:39;4.93;;;4.53;;
19907;SDS011;10116;53.112;7.356;2022-07-21T11:26:08;4.65;;;4.38;;
19907;SDS011;10116;53.112;7.356;2022-07-21T11:28:34;5.30;;;5.00;;
19907;SDS011;10116;53.112;7.356;2022-07-21T11:31:13;4.78;;;4.45;;
19907;SDS011;10116;53.112;7.356;2022-07-21T11:33:46;4.95;;;4.45;;
19907;SDS011;10116;53.112;7.356;2022-07-21T11:36:23;4.95;;;4.65;;
19907;SDS011;10116;53.112;7.356;2022-07-21T11:39:00;4.50;;;4.20;;
19907;SDS011;10116;53.112;7.356;2022-07-21T11:41:31;4.47;;;4.18;;
19907;SDS011;10116;53.112;7.356;2022-07-21T11:43:58;4.65;;;4.40;;
19907;SDS011;10116;53.112;7.356;2022-07-21T11:46:24;4.78;;;4.55;;
19907;SDS011;10116;53.112;7.356;2022-07-21T11:49:05;4.90;;;4.60;;
19907;SDS011;10116;53.112;7.356;2022-07-21T11:51:31;4.63;;;4.32;;
19907;SDS011;10116;53.112;7.356;2022-07-21T11:53:57;4.85;;;4.65;;
19907;SDS011;10116;53.112;7.356;2022-07-21T11:56:23;4.93;;;4.63;;
19907;SDS011;10116;53.112;7.356;2022-07-21T11:58:49;5.03;;;4.68;;
19907;SDS011;10116;53.112;7.356;2022-07-21T12:01:14;4.75;;;4.45;;
19907;SDS011;10116;53.112;7.356;2022-07-21T12:03:49;5.28;;;4.88;;
19907;SDS011;10116;53.112;7.356;2022-07-21T12:06:16;4.80;;;4.50;;
19907;SDS011;10116;53.112;7.356;2022-07-21T12:08:43;5.15;;;4.75;;
19907;SDS011;10116;53.112;7.356;2022-07-21T12:11:09;5.15;;;4.80;;
19907;SDS011;10116;53.112;7.356;2022-07-21T12:13:56;4.75;;;4.45;;
19907;SDS011;10116;53.112;7.356;2022-07-21T12:16:23;5.38;;;4.88;;
19907;SDS011;10116;53.112;7.356;2022-07-21T12:18:49;5.30;;;5.00;;
19907;SDS011;10116;53.112;7.356;2022-07-21T12:21:39;5.33;;;4.93;;
19907;SDS011;10116;53.112;7.356;2022-07-21T12:24:15;5.00;;;4.70;;
19907;SDS011;10116;53.112;7.356;2022-07-21T12:26:42;5.00;;;4.70;;
19907;SDS011;10116;53.112;7.356;2022-07-21T12:29:08;5.88;;;5.40;;
19907;SDS011;10116;53.112;7.356;2022-07-21T12:31:34;5.07;;;4.77;;
19907;SDS011;10116;53.112;7.356;2022-07-21T12:34:11;5.37;;;5.07;;
19907;SDS011;10116;53.112;7.356;2022-07-21T12:36:39;5.40;;;5.00;;
19907;SDS011;10116;53.112;7.356;2022-07-21T12:42:09;5.20;;;4.80;;
19907;SDS011;10116;53.112;7.356;2022-07-21T12:44:51;5.60;;;5.30;;
19907;SDS011;10116;53.112;7.356;2022-07-21T12:47:21;5.17;;;4.87;;
19907;SDS011;10116;53.112;7.356;2022-07-21T12:49:57;5.20;;;4.83;;
19907;SDS011;10116;53.112;7.356;2022-07-21T12:52:28;6.15;;;5.78;;
19907;SDS011;10116;53.112;7.356;2022-07-21T12:54:55;5.57;;;5.17;;
19907;SDS011;10116;53.112;7.356;2022-07-21T12:57:24;7.73;;;4.83;;
19907;SDS011;10116;53.112;7.356;2022-07-21T12:59:54;6.03;;;5.63;;
19907;SDS011;10116;53.112;7.356;2022-07-21T13:02:21;5.43;;;5.03;;
19907;SDS011;10116;53.112;7.356;2022-07-21T13:04:47;6.70;;;6.20;;
19907;SDS011;10116;53.112;7.356;2022-07-21T13:07:12;5.78;;;5.38;;
19907;SDS011;10116;53.112;7.356;2022-07-21T13:09:38;6.00;;;5.50;;
19907;SDS011;10116;53.112;7.356;2022-07-21T13:12:04;6.10;;;5.60;;
19907;SDS011;10116;53.112;7.356;2022-07-21T13:14:30;5.10;;;4.80;;
19907;SDS011;10116;53.112;7.356;2022-07-21T13:16:56;5.90;;;5.47;;
19907;SDS011;10116;53.112;7.356;2022-07-21T13:19:23;5.37;;;4.97;;
19907;SDS011;10116;53.112;7.356;2022-07-21T13:21:49;5.77;;;5.47;;
19907;SDS011;10116;53.112;7.356;2022-07-21T13:24:15;5.63;;;5.20;;
19907;SDS011;10116;53.112;7.356;2022-07-21T13:26:41;5.40;;;5.10;;
19907;SDS011;10116;53.112;7.356;2022-07-21T13:29:07;5.22;;;4.93;;
19907;SDS011;10116;53.112;7.356;2022-07-21T13:31:33;5.40;;;5.00;;
19907;SDS011;10116;53.112;7.356;2022-07-21T13:34:05;5.55;;;5.15;;
19907;SDS011;10116;53.112;7.356;2022-07-21T13:36:33;5.68;;;5.28;;
19907;SDS011;10116;53.112;7.356;2022-07-21T13:39:00;5.63;;;5.28;;
19907;SDS011;10116;53.112;7.356;2022-07-21T13:41:25;5.87;;;5.50;;
19907;SDS011;10116;53.112;7.356;2022-07-21T13:43:51;6.15;;;5.75;;
19907;SDS011;10116;53.112;7.356;2022-07-21T13:46:17;5.30;;;5.00;;
19907;SDS011;10116;53.112;7.356;2022-07-21T13:48:43;5.03;;;4.82;;
19907;SDS011;10116;53.112;7.356;2022-07-21T13:51:13;5.00;;;4.70;;
19907;SDS011;10116;53.112;7.356;2022-07-21T13:53:41;5.30;;;5.00;;
19907;SDS011;10116;53.112;7.356;2022-07-21T13:56:09;5.87;;;5.47;;
19907;SDS011;10116;53.112;7.356;2022-07-21T13:58:36;5.57;;;5.28;;
19907;SDS011;10116;53.112;7.356;2022-07-21T14:01:02;5.33;;;4.93;;
19907;SDS011;10116;53.112;7.356;2022-07-21T14:03:28;5.50;;;5.20;;
19907;SDS011;10116;53.112;7.356;2022-07-21T14:05:54;6.43;;;6.03;;
19907;SDS011;10116;53.112;7.356;2022-07-21T14:08:19;5.55;;;5.15;;
19907;SDS011;10116;53.112;7.356;2022-07-21T14:10:45;5.88;;;5.47;;
19907;SDS011;10116;53.112;7.356;2022-07-21T14:13:10;5.43;;;5.13;;
19907;SDS011;10116;53.112;7.356;2022-07-21T14:15:36;5.50;;;5.20;;
19907;SDS011;10116;53.112;7.356;2022-07-21T14:18:02;5.85;;;5.45;;
19907;SDS011;10116;53.112;7.356;2022-07-21T14:20:28;4.93;;;4.63;;
19907;SDS011;10116;53.112;7.356;2022-07-21T14:22:54;6.38;;;5.88;;
19907;SDS011;10116;53.112;7.356;2022-07-21T14:25:20;6.10;;;5.60;;
19907;SDS011;10116;53.112;7.356;2022-07-21T14:27:47;5.80;;;5.40;;
19907;SDS011;10116;53.112;7.356;2022-07-21T14:30:14;5.80;;;5.40;;
19907;SDS011;10116;53.112;7.356;2022-07-21T14:32:41;5.93;;;5.53;;
19907;SDS011;10116;53.112;7.356;2022-07-21T14:35:08;4.83;;;4.53;;
19907;SDS011;10116;53.112;7.356;2022-07-21T14:37:34;5.20;;;4.88;;
19907;SDS011;10116;53.112;7.356;2022-07-21T14:40:00;5.63;;;5.22;;
19907;SDS011;10116;53.112;7.356;2022-07-21T14:42:26;5.43;;;5.03;;
19907;SDS011;10116;53.112;7.356;2022-07-21T14:44:51;5.60;;;5.10;;
19907;SDS011;10116;53.112;7.356;2022-07-21T14:47:17;5.78;;;5.38;;
19907;SDS011;10116;53.112;7.356;2022-07-21T14:49:43;5.68;;;5.28;;
19907;SDS011;10116;53.112;7.356;2022-07-21T14:52:08;6.00;;;5.60;;
19907;SDS011;10116;53.112;7.356;2022-07-21T14:54:35;5.70;;;5.30;;
19907;SDS011;10116;53.112;7.356;2022-07-21T14:57:01;5.78;;;5.38;;
19907;SDS011;10116;53.112;7.356;2022-07-21T14:59:27;5.20;;;4.82;;
19907;SDS011;10116;53.112;7.356;2022-07-21T15:01:53;5.55;;;5.25;;
19907;SDS011;10116;53.112;7.356;2022-07-21T15:04:19;5.45;;;5.07;;
19907;SDS011;10116;53.112;7.356;2022-07-21T15:06:46;6.10;;;5.70;;
19907;SDS011;10116;53.112;7.356;2022-07-21T15:09:12;6.28;;;5.88;;
19907;SDS011;10116;53.112;7.356;2022-07-21T15:11:38;5.60;;;5.20;;
19907;SDS011;10116;53.112;7.356;2022-07-21T15:14:03;5.35;;;4.95;;
19907;SDS011;10116;53.112;7.356;2022-07-21T15:16:29;5.70;;;5.20;;
19907;SDS011;10116;53.112;7.356;2022-07-21T15:18:55;5.05;;;4.75;;
19907;SDS011;10116;53.112;7.356;2022-07-21T15:21:21;4.80;;;4.50;;
19907;SDS011;10116;53.112;7.356;2022-07-21T15:23:46;4.78;;;4.47;;
19907;SDS011;10116;53.112;7.356;2022-07-21T15:26:12;4.90;;;4.53;;
19907;SDS011;10116;53.112;7.356;2022-07-21T15:28:38;5.32;;;5.03;;
19907;SDS011;10116;53.112;7.356;2022-07-21T15:31:03;4.97;;;4.68;;